Time;durP1;ratioP1;P1;durP2;ratioP2;P2;SDS_P1;SDS_P2;PMS_P1;PMS_P2;Temp;Humidity;BMP_temperature;BMP_pressure;BME280_temperature;BME280_humidity;BME280_pressure;Samples;Min_cycle;Max_cycle;Signal;HPM_P1;HPM_P2
2024/04/24 00:00:46;;;;;;;;;;;;;;;6.51;61.09;100679.22;4552596;26;20017;-66
2024/04/24 00:02:50;;;;;;;;;;;;;;;6.49;61.18;100677.53;4551373;26;19928;-67
2024/04/24 00:04:54;;;;;;;;;;;;;;;6.49;61.29;100671.31;4552183;26;19960;-66
2024/04/24 00:06:55;;;;;;;;;;;;;;;6.47;61.58;100666.13;4553573;26;19928;-66
2024/04/24 00:08:58;;;;;;;;;;;;;;;6.46;61.93;100669.78;4554127;26;20040;-66
2024/04/24 00:11:02;;;;;;;;;;;;;;;6.46;61.96;100663.59;4555301;26;20368;-66
2024/04/24 00:13:08;;;;;;;;;;;;;;;6.44;62.18;100671.78;4553937;26;19935;-66
2024/04/24 00:15:12;;;;;;;;;;;;;;;6.43;61.86;100667.41;4554683;26;19956;-67
2024/04/24 00:17:15;;;;;;;;;;;;;;;6.43;61.94;100658.53;4554739;26;19946;-65
2024/04/24 00:19:16;;;;;;;;;;;;;;;6.41;62.20;100656.00;4555480;26;19928;-66
2024/04/24 00:21:20;;;;;;;;;;;;;;;6.40;62.79;100654.28;4554720;26;19928;-67
2024/04/24 00:23:21;;;;;;;;;;;;;;;6.38;62.32;100650.94;4554963;26;19927;-66
2024/04/24 00:25:25;;;;;;;;;;;;;;;6.39;62.77;100641.88;4554649;26;19996;-67
2024/04/24 00:27:29;;;;;;;;;;;;;;;6.39;62.54;100647.22;4553676;26;19934;-66
2024/04/24 00:29:32;;;;;;;;;;;;;;;6.40;62.50;100637.38;4554740;26;19927;-67
2024/04/24 00:31:36;;;;;;;;;;;;;;;6.40;62.32;100627.47;4554777;26;19928;-67
2024/04/24 00:33:37;;;;;;;;;;;;;;;6.43;62.36;100619.13;4554557;26;20021;-67
2024/04/24 00:35:40;;;;;;;;;;;;;;;6.44;62.12;100622.63;4551787;26;20739;-66
2024/04/24 00:37:41;;;;;;;;;;;;;;;6.44;62.04;100619.94;4554374;26;19995;-66
2024/04/24 00:39:46;;;;;;;;;;;;;;;6.45;62.40;100616.28;4554808;25;19928;-67
2024/04/24 00:41:49;;;;;;;;;;;;;;;6.44;62.83;100612.75;4494031;26;20018;-66
2024/04/24 00:43:53;;;;;;;;;;;;;;;6.45;62.18;100614.44;4554155;26;19928;-69
2024/04/24 00:45:57;;;;;;;;;;;;;;;6.44;62.28;100607.41;4555109;26;19927;-67
2024/04/24 00:48:03;;;;;;;;;;;;;;;6.45;61.86;100603.69;4555201;26;19935;-67
2024/04/24 00:50:07;;;;;;;;;;;;;;;6.46;61.64;100609.91;4554835;26;19928;-66
2024/04/24 00:52:08;;;;;;;;;;;;;;;6.46;61.58;100608.06;4554236;26;19938;-65
2024/04/24 00:54:12;;;;;;;;;;;;;;;6.45;61.53;100601.00;4553260;26;19928;-66
2024/04/24 00:56:15;;;;;;;;;;;;;;;6.45;61.46;100592.97;4551840;26;19971;-65
2024/04/24 00:58:19;;;;;;;;;;;;;;;6.44;61.80;100591.28;4554783;26;19935;-67
2024/04/24 01:00:23;;;;;;;;;;;;;;;6.42;62.08;100587.06;4554797;26;19938;-67
2024/04/24 01:02:29;;;;;;;;;;;;;;;6.39;62.46;100588.22;4552185;26;19927;-66
2024/04/24 01:04:33;;;;;;;;;;;;;;;6.38;62.10;100580.31;4552992;26;19928;-66
2024/04/24 01:06:36;;;;;;;;;;;;;;;6.35;62.31;100586.84;4554840;26;20021;-67
2024/04/24 01:08:37;;;;;;;;;;;;;;;6.34;62.07;100584.31;4548989;26;19932;-66
2024/04/24 01:10:41;;;;;;;;;;;;;;;6.31;62.15;100580.94;4553802;26;20273;-66
2024/04/24 01:12:44;;;;;;;;;;;;;;;6.29;62.20;100580.25;4553984;26;19928;-66
2024/04/24 01:14:48;;;;;;;;;;;;;;;6.29;62.03;100576.72;4553834;26;19928;-66
2024/04/24 01:16:52;;;;;;;;;;;;;;;6.27;61.83;100576.03;4554327;26;19956;-66
2024/04/24 01:19:01;;;;;;;;;;;;;;;6.25;62.04;100573.53;4553971;26;19928;-65
2024/04/24 01:21:05;;;;;;;;;;;;;;;6.24;62.69;100566.47;4555033;26;19934;-66
2024/04/24 01:23:11;;;;;;;;;;;;;;;6.23;62.29;100563.94;4554205;26;19968;-66
2024/04/24 01:25:16;;;;;;;;;;;;;;;6.25;62.29;100564.63;4554035;26;19967;-66
2024/04/24 01:27:20;;;;;;;;;;;;;;;6.22;62.09;100557.72;4554216;26;19935;-66
2024/04/24 01:29:23;;;;;;;;;;;;;;;6.22;62.50;100555.06;4553379;26;19943;-68
2024/04/24 01:31:27;;;;;;;;;;;;;;;6.22;62.41;100557.72;4553852;26;19938;-67
2024/04/24 01:33:28;;;;;;;;;;;;;;;6.23;61.97;100550.53;4551998;26;19928;-66
2024/04/24 01:35:32;;;;;;;;;;;;;;;6.23;61.74;100547.84;4552780;26;19996;-66
2024/04/24 01:37:33;;;;;;;;;;;;;;;6.22;61.62;100549.69;4553669;26;19928;-66
2024/04/24 01:39:37;;;;;;;;;;;;;;;6.21;62.03;100545.31;4554291;26;19928;-67
2024/04/24 01:41:37;;;;;;;;;;;;;;;6.21;62.17;100542.63;4554405;26;19939;-66
2024/04/24 01:43:44;;;;;;;;;;;;;;;6.22;61.66;100546.16;4552743;26;19938;-66
2024/04/24 01:45:45;;;;;;;;;;;;;;;6.22;61.68;100532.72;4554765;26;19928;-65
2024/04/24 01:47:48;;;;;;;;;;;;;;;6.22;61.84;100532.72;4553148;26;20282;-66
2024/04/24 01:49:52;;;;;;;;;;;;;;;6.21;61.77;100529.22;4554320;26;19943;-66
2024/04/24 01:51:55;;;;;;;;;;;;;;;6.20;62.18;100538.25;4553332;26;21009;-66
2024/04/24 01:53:59;;;;;;;;;;;;;;;6.20;62.16;100524.84;4554307;26;20021;-66
2024/04/24 01:56:00;;;;;;;;;;;;;;;6.23;62.09;100524.53;4553875;26;19934;-66
2024/04/24 01:58:04;;;;;;;;;;;;;;;6.24;61.39;100525.41;4552698;26;20377;-66
2024/04/24 02:00:08;;;;;;;;;;;;;;;6.25;61.59;100521.69;4554270;25;19935;-67
2024/04/24 02:02:18;;;;;;;;;;;;;;;6.25;61.73;100522.56;4554238;26;19996;-67
2024/04/24 02:04:19;;;;;;;;;;;;;;;6.26;61.64;100521.53;4553450;26;19927;-66
2024/04/24 02:06:22;;;;;;;;;;;;;;;6.26;61.70;100520.72;4553457;26;19938;-67
2024/04/24 02:08:26;;;;;;;;;;;;;;;6.24;61.82;100522.72;4553931;26;19936;-66
2024/04/24 02:10:29;;;;;;;;;;;;;;;6.22;62.08;100517.50;4553771;26;19928;-67
2024/04/24 02:12:33;;;;;;;;;;;;;;;6.21;61.62;100525.69;4553037;26;19939;-66
2024/04/24 02:14:34;;;;;;;;;;;;;;;6.17;61.46;100517.09;4552125;26;19928;-66
2024/04/24 02:16:40;;;;;;;;;;;;;;;6.16;61.69;100514.56;4553334;25;19927;-66
2024/04/24 02:18:44;;;;;;;;;;;;;;;6.14;61.73;100514.72;4553717;26;19950;-67
2024/04/24 02:20:45;;;;;;;;;;;;;;;6.12;62.04;100506.00;4553043;26;19928;-66
2024/04/24 02:22:49;;;;;;;;;;;;;;;6.12;61.88;100506.00;4553186;26;19936;-67
2024/04/24 02:27:12;;;;;;;;;;;;;;;6.10;61.87;100503.47;4550244;26;19927;-66
2024/04/24 02:29:16;;;;;;;;;;;;;;;6.10;61.63;100499.97;4553379;25;19938;-66
2024/04/24 02:31:19;;;;;;;;;;;;;;;6.08;62.22;100494.75;4491413;26;19940;-66
2024/04/24 02:33:23;;;;;;;;;;;;;;;6.08;62.44;100502.78;4553237;26;19946;-67
2024/04/24 02:35:26;;;;;;;;;;;;;;;6.07;62.46;100501.09;4552767;26;19938;-66
2024/04/24 02:37:27;;;;;;;;;;;;;;;6.03;62.50;100494.34;4553662;26;19935;-66
2024/04/24 02:39:31;;;;;;;;;;;;;;;6.03;61.93;100494.34;4553163;26;19935;-67
2024/04/24 02:41:35;;;;;;;;;;;;;;;6.03;62.51;100488.16;4553250;26;20369;-66
2024/04/24 02:43:40;;;;;;;;;;;;;;;6.04;62.41;100489.84;4510134;26;19928;-67
2024/04/24 02:45:41;;;;;;;;;;;;;;;6.05;61.93;100483.47;4553239;26;19948;-66
2024/04/24 02:47:44;;;;;;;;;;;;;;;6.06;62.15;100482.50;4551135;26;19927;-66
2024/04/24 02:49:50;;;;;;;;;;;;;;;6.05;62.06;100481.66;4552066;25;20620;-66
2024/04/24 02:51:54;;;;;;;;;;;;;;;6.05;62.01;100476.28;4554109;26;19953;-66
2024/04/24 02:53:58;;;;;;;;;;;;;;;6.07;61.84;100478.81;4523239;26;19939;-66
2024/04/24 02:55:59;;;;;;;;;;;;;;;6.07;62.11;100470.78;4552917;26;19935;-66
2024/04/24 02:58:02;;;;;;;;;;;;;;;6.07;62.18;100466.25;4553612;26;19927;-66
2024/04/24 03:00:05;;;;;;;;;;;;;;;6.09;62.10;100471.47;4552240;26;19935;-66
2024/04/24 03:02:09;;;;;;;;;;;;;;;6.07;61.67;100463.56;4551254;26;20309;-67
2024/04/24 03:04:12;;;;;;;;;;;;;;;6.06;61.61;100464.56;4554102;26;19934;-66
2024/04/24 03:06:18;;;;;;;;;;;;;;;6.08;62.00;100461.72;4553160;26;19935;-67
2024/04/24 03:08:19;;;;;;;;;;;;;;;6.08;61.70;100457.22;4553423;26;19928;-67
2024/04/24 03:10:23;;;;;;;;;;;;;;;6.08;61.68;100453.66;4552133;26;19931;-67
2024/04/24 03:12:26;;;;;;;;;;;;;;;6.09;62.00;100450.00;4553590;26;19928;-66
2024/04/24 03:14:27;;;;;;;;;;;;;;;6.09;61.91;100448.16;4553791;26;19936;-67
2024/04/24 03:16:33;;;;;;;;;;;;;;;6.11;61.77;100448.88;4553283;26;20575;-66
2024/04/24 03:18:36;;;;;;;;;;;;;;;6.11;61.08;100451.53;4553552;26;19932;-67
2024/04/24 03:20:37;;;;;;;;;;;;;;;6.12;61.79;100447.00;4552904;26;19971;-67
2024/04/24 03:22:43;;;;;;;;;;;;;;;6.10;61.95;100444.50;4553327;26;19939;-66
2024/04/24 03:24:45;;;;;;;;;;;;;;;6.09;61.42;100448.16;4553248;26;19935;-66
2024/04/24 03:26:49;;;;;;;;;;;;;;;6.09;61.33;100442.78;4552124;26;20273;-66
2024/04/24 03:28:50;;;;;;;;;;;;;;;6.09;61.29;100439.28;4552026;26;19939;-67
2024/04/24 03:30:53;;;;;;;;;;;;;;;6.09;61.35;100439.28;4553975;25;20930;-66
2024/04/24 03:32:54;;;;;;;;;;;;;;;6.08;61.79;100440.25;4553541;26;19927;-66
2024/04/24 03:34:58;;;;;;;;;;;;;;;6.06;61.21;100437.75;4552165;26;19928;-67
2024/04/24 03:37:02;;;;;;;;;;;;;;;6.04;61.73;100444.28;4552225;26;20605;-67
2024/04/24 03:39:08;;;;;;;;;;;;;;;6.02;61.47;100433.72;4553434;26;20369;-66
2024/04/24 03:41:12;;;;;;;;;;;;;;;6.00;61.65;100433.00;4552629;26;19976;-66
2024/04/24 03:43:15;;;;;;;;;;;;;;;6.00;62.16;100435.69;4552580;26;19936;-66
2024/04/24 03:45:19;;;;;;;;;;;;;;;6.00;61.90;100440.22;4552925;26;19928;-66
2024/04/24 03:47:20;;;;;;;;;;;;;;;5.98;61.81;100428.81;4552772;26;20356;-67
2024/04/24 03:49:25;;;;;;;;;;;;;;;5.96;62.18;100431.59;4553586;26;19939;-67
2024/04/24 03:51:28;;;;;;;;;;;;;;;5.94;62.20;100429.09;4552256;26;19939;-66
2024/04/24 03:53:29;;;;;;;;;;;;;;;5.94;62.29;100428.22;4552056;26;19927;-66
2024/04/24 03:55:35;;;;;;;;;;;;;;;5.91;62.20;100432.06;4552270;25;20016;-66
2024/04/24 03:57:39;;;;;;;;;;;;;;;5.91;62.83;100429.38;4552393;26;19939;-66
2024/04/24 03:59:43;;;;;;;;;;;;;;;5.90;62.62;100421.50;4552636;26;19951;-66
2024/04/24 04:01:46;;;;;;;;;;;;;;;5.89;62.78;100418.00;4552400;26;20020;-67
2024/04/24 04:03:50;;;;;;;;;;;;;;;5.88;62.91;100426.19;4551498;26;19999;-67
2024/04/24 04:05:51;;;;;;;;;;;;;;;5.88;63.27;100426.19;4547188;26;19927;-67
2024/04/24 04:07:58;;;;;;;;;;;;;;;5.88;63.78;100426.19;4552220;26;19927;-67
2024/04/24 04:10:02;;;;;;;;;;;;;;;5.87;63.71;100424.50;4552228;26;20437;-67
2024/04/24 04:12:09;;;;;;;;;;;;;;;5.86;63.69;100414.75;4552213;26;19928;-67
2024/04/24 04:14:13;;;;;;;;;;;;;;;5.85;63.75;100423.81;4581702;25;19999;-67
2024/04/24 04:16:16;;;;;;;;;;;;;;;5.84;64.20;100408.72;4553669;25;19928;-67
2024/04/24 04:18:17;;;;;;;;;;;;;;;5.84;63.93;100414.06;4551387;26;19928;-67
2024/04/24 04:20:21;;;;;;;;;;;;;;;5.85;63.97;100413.09;4552365;26;19935;-67
2024/04/24 04:22:22;;;;;;;;;;;;;;;5.84;64.49;100419.44;4552185;26;19927;-67
2024/04/24 04:24:26;;;;;;;;;;;;;;;5.83;64.45;100413.25;4552884;25;19996;-67
2024/04/24 04:26:29;;;;;;;;;;;;;;;5.85;64.39;100413.09;4551442;26;19927;-67
2024/04/24 04:28:36;;;;;;;;;;;;;;;5.84;64.65;100412.22;4552989;26;20561;-67
2024/04/24 04:30:39;;;;;;;;;;;;;;;5.86;64.32;100412.06;4551636;26;19935;-67
2024/04/24 04:32:43;;;;;;;;;;;;;;;5.88;64.19;100415.47;4552148;26;19935;-67
2024/04/24 04:34:47;;;;;;;;;;;;;;;5.88;64.21;100407.41;4552144;25;19937;-67
2024/04/24 04:36:50;;;;;;;;;;;;;;;5.90;63.74;100405.41;4551368;26;19927;-67
2024/04/24 04:38:52;;;;;;;;;;;;;;;5.92;63.48;100411.47;4552162;26;20494;-67
2024/04/24 04:40:55;;;;;;;;;;;;;;;5.95;63.70;100403.09;4549347;26;19927;-67
2024/04/24 04:42:56;;;;;;;;;;;;;;;5.96;63.36;100410.16;4551907;26;19943;-67
2024/04/24 04:45:03;;;;;;;;;;;;;;;5.97;63.45;100409.19;4552334;26;19932;-68
2024/04/24 04:47:06;;;;;;;;;;;;;;;5.97;62.77;100400.31;4551727;26;19927;-67
2024/04/24 04:49:07;;;;;;;;;;;;;;;5.98;62.69;100402.81;4551978;26;19928;-67
2024/04/24 04:51:11;;;;;;;;;;;;;;;5.99;63.41;100393.81;4552086;26;20389;-67
2024/04/24 04:53:15;;;;;;;;;;;;;;;6.01;63.25;100393.66;4551050;26;19927;-67
2024/04/24 04:55:19;;;;;;;;;;;;;;;6.01;62.97;100399.00;4554418;26;19935;-67
2024/04/24 04:57:22;;;;;;;;;;;;;;;6.02;62.77;100398.00;4555079;26;19927;-67
2024/04/24 04:59:23;;;;;;;;;;;;;;;6.02;62.30;100390.81;4552987;26;19985;-67
2024/04/24 05:01:30;;;;;;;;;;;;;;;6.03;62.76;100395.16;4553652;25;19928;-68
2024/04/24 05:03:33;;;;;;;;;;;;;;;6.05;62.75;100389.63;4554300;26;19928;-68
2024/04/24 05:05:34;;;;;;;;;;;;;;;6.07;62.65;100387.66;4555120;26;20277;-67
2024/04/24 05:07:38;;;;;;;;;;;;;;;6.07;61.96;100388.50;4553383;26;19927;-67
2024/04/24 05:09:41;;;;;;;;;;;;;;;6.09;62.13;100383.81;4552512;26;19927;-67
2024/04/24 05:11:48;;;;;;;;;;;;;;;6.09;61.97;100383.81;4554838;26;19939;-68
2024/04/24 05:13:52;;;;;;;;;;;;;;;6.11;61.84;100380.97;4554825;26;19927;-67
2024/04/24 05:15:55;;;;;;;;;;;;;;;6.12;62.19;100378.13;4555441;26;20358;-68
2024/04/24 05:18:01;;;;;;;;;;;;;;;6.16;62.41;100380.50;4555208;26;19928;-68
2024/04/24 05:20:05;;;;;;;;;;;;;;;6.16;62.19;100376.00;4554431;26;19958;-67
2024/04/24 05:22:09;;;;;;;;;;;;;;;6.18;62.52;100376.66;4553061;26;19928;-68
2024/04/24 05:24:10;;;;;;;;;;;;;;;6.18;62.41;100376.66;4554269;26;19935;-67
2024/04/24 05:30:53;;;;;;;;;;;;;;;6.22;62.45;100369.16;4553666;26;19935;-67
2024/04/24 05:32:57;;;;;;;;;;;;;;;6.24;62.42;100372.53;4552264;26;19939;-67
2024/04/24 05:35:00;;;;;;;;;;;;;;;6.24;61.96;100369.84;4553824;26;20004;-67
2024/04/24 05:37:04;;;;;;;;;;;;;;;6.24;62.30;100369.84;4554166;26;19928;-67
2024/04/24 05:39:08;;;;;;;;;;;;;;;6.24;62.32;100368.00;4554951;25;19931;-67
2024/04/24 05:41:08;;;;;;;;;;;;;;;6.25;62.25;100360.78;4554551;25;19932;-67
2024/04/24 05:43:12;;;;;;;;;;;;;;;6.26;62.65;100357.94;4552610;26;19931;-67
2024/04/24 05:45:16;;;;;;;;;;;;;;;6.28;62.53;100361.28;4554386;26;20344;-67
2024/04/24 05:47:17;;;;;;;;;;;;;;;6.28;62.58;100353.25;4554474;26;20000;-67
2024/04/24 05:49:20;;;;;;;;;;;;;;;6.30;62.37;100356.63;4552811;26;19960;-67
2024/04/24 05:51:27;;;;;;;;;;;;;;;6.32;61.97;100354.63;4554334;26;20472;-67
2024/04/24 05:53:30;;;;;;;;;;;;;;;6.35;62.43;100348.13;4554261;26;20372;-67
2024/04/24 05:55:32;;;;;;;;;;;;;;;6.37;62.32;100347.97;4554285;26;20366;-67
2024/04/24 05:57:35;;;;;;;;;;;;;;;6.39;61.84;100348.63;4553658;26;19934;-67
2024/04/24 05:59:39;;;;;;;;;;;;;;;6.40;62.06;100342.28;4553716;26;19927;-67
2024/04/24 06:01:42;;;;;;;;;;;;;;;6.42;61.87;100340.25;4554527;26;20226;-67
2024/04/24 06:03:43;;;;;;;;;;;;;;;6.43;62.18;100340.09;4553129;26;19927;-66
2024/04/24 06:05:47;;;;;;;;;;;;;;;6.45;61.66;100343.47;4554215;25;19932;-67
2024/04/24 06:07:53;;;;;;;;;;;;;;;6.47;61.99;100335.25;4553792;26;20365;-67
2024/04/24 06:09:57;;;;;;;;;;;;;;;6.49;61.45;100325.22;4553756;26;19938;-66
2024/04/24 06:12:01;;;;;;;;;;;;;;;6.51;61.51;100331.25;4510800;26;19935;-67
2024/04/24 06:14:05;;;;;;;;;;;;;;;6.54;61.83;100327.44;4554056;26;19935;-66
2024/04/24 06:16:06;;;;;;;;;;;;;;;6.56;61.29;100333.47;4552175;26;19937;-66
2024/04/24 06:18:10;;;;;;;;;;;;;;;6.57;61.78;100327.09;4554164;25;19928;-66
2024/04/24 06:20:14;;;;;;;;;;;;;;;6.60;61.47;100326.75;4555154;26;20347;-67
2024/04/24 06:22:18;;;;;;;;;;;;;;;6.62;61.80;100327.44;4554303;25;19939;-67
2024/04/24 06:24:22;;;;;;;;;;;;;;;6.64;61.58;100326.28;4554432;26;19927;-67
2024/04/24 06:26:25;;;;;;;;;;;;;;;6.65;61.46;100309.19;4554024;26;19938;-66
2024/04/24 06:28:26;;;;;;;;;;;;;;;6.67;61.36;100312.53;4554978;26;19936;-66
2024/04/24 06:30:31;;;;;;;;;;;;;;;6.71;61.14;100312.22;4522785;26;19933;-67
2024/04/24 06:32:35;;;;;;;;;;;;;;;6.73;61.57;100316.41;4554922;26;19939;-67
2024/04/24 06:34:38;;;;;;;;;;;;;;;6.74;61.05;100304.69;4555027;26;19928;-67
2024/04/24 06:36:42;;;;;;;;;;;;;;;6.77;60.99;100306.19;4551694;26;19940;-66
2024/04/24 06:38:45;;;;;;;;;;;;;;;6.79;60.61;100305.03;4552995;26;19938;-66
2024/04/24 06:40:52;;;;;;;;;;;;;;;6.81;60.69;100305.69;4524557;26;19961;-67
2024/04/24 06:42:56;;;;;;;;;;;;;;;6.83;60.35;100301.03;4524285;26;19929;-67
2024/04/24 06:44:57;;;;;;;;;;;;;;;6.85;60.26;100301.69;4554508;26;19928;-66
2024/04/24 06:47:00;;;;;;;;;;;;;;;6.88;60.21;100299.69;4553078;26;20265;-67
2024/04/24 06:49:01;;;;;;;;;;;;;;;6.91;60.25;100293.97;4551770;26;19936;-67
2024/04/24 06:51:05;;;;;;;;;;;;;;;6.92;60.35;100290.31;4551761;26;20000;-68
2024/04/24 06:53:09;;;;;;;;;;;;;;;6.89;60.20;100285.25;4541436;26;20025;-66
2024/04/24 06:55:12;;;;;;;;;;;;;;;6.96;60.25;100299.69;4547121;26;19935;-66
2024/04/24 06:57:16;;;;;;;;;;;;;;;6.98;59.85;100298.53;4550851;26;19943;-67
2024/04/24 06:59:20;;;;;;;;;;;;;;;6.99;59.81;100289.50;4551816;26;19954;-66
2024/04/24 07:01:24;;;;;;;;;;;;;;;7.02;59.98;100297.22;4552508;26;19935;-66
2024/04/24 07:03:27;;;;;;;;;;;;;;;7.03;60.02;100285.44;4550943;26;19935;-66
2024/04/24 07:05:32;;;;;;;;;;;;;;;7.06;59.85;100292.34;4552571;25;19940;-66
2024/04/24 07:07:35;;;;;;;;;;;;;;;7.09;59.77;100288.50;4551934;26;20364;-67
2024/04/24 07:09:39;;;;;;;;;;;;;;;7.10;59.29;100291.03;4520961;26;19997;-66
2024/04/24 07:11:43;;;;;;;;;;;;;;;7.11;59.49;100290.00;4551203;26;20351;-67
2024/04/24 07:13:46;;;;;;;;;;;;;;;7.12;59.35;100280.94;4550088;26;19935;-67
2024/04/24 07:15:50;;;;;;;;;;;;;;;7.15;59.64;100285.97;4551080;26;19956;-66
2024/04/24 07:17:53;;;;;;;;;;;;;;;7.17;59.13;100275.91;4537695;26;20004;-66
2024/04/24 07:19:54;;;;;;;;;;;;;;;7.18;59.43;100272.22;4544224;26;20426;-66
2024/04/24 07:21:58;;;;;;;;;;;;;;;7.21;59.42;100271.88;4547906;26;19928;-66
2024/04/24 07:24:02;;;;;;;;;;;;;;;7.23;59.01;100271.72;4551323;26;20379;-66
2024/04/24 07:26:03;;;;;;;;;;;;;;;7.24;58.88;100273.41;4548070;26;20252;-66
2024/04/24 07:28:07;;;;;;;;;;;;;;;7.27;59.15;100269.53;4551485;26;19935;-66
2024/04/24 07:30:11;;;;;;;;;;;;;;;7.30;58.89;100274.56;4549485;26;19927;-66
2024/04/24 07:32:14;;;;;;;;;;;;;;;7.32;59.00;100276.09;4549948;26;19943;-67
2024/04/24 07:34:18;;;;;;;;;;;;;;;7.35;58.36;100272.22;4550674;26;19942;-66
2024/04/24 07:36:19;;;;;;;;;;;;;;;7.37;58.63;100272.91;4551297;26;19928;-66
2024/04/24 07:38:22;;;;;;;;;;;;;;;7.40;58.64;100272.56;4549776;26;20261;-67
2024/04/24 07:40:26;;;;;;;;;;;;;;;7.42;58.12;100262.50;4522117;26;19932;-66
2024/04/24 07:42:29;;;;;;;;;;;;;;;7.46;57.98;100254.94;4522820;26;19928;-65
2024/04/24 07:44:33;;;;;;;;;;;;;;;7.48;58.07;100258.31;4550671;26;20004;-66
2024/04/24 07:46:40;;;;;;;;;;;;;;;7.50;57.76;100259.78;4550230;26;20290;-66
2024/04/24 07:48:43;;;;;;;;;;;;;;;7.53;57.85;100256.78;4550280;26;19927;-66
2024/04/24 07:50:48;;;;;;;;;;;;;;;7.57;57.46;100263.50;4550081;26;20029;-66
2024/04/24 07:52:51;;;;;;;;;;;;;;;7.60;57.52;100256.94;4550096;26;19934;-66
2024/04/24 07:54:55;;;;;;;;;;;;;;;7.62;57.09;100254.06;4551344;26;20412;-66
2024/04/24 07:56:58;;;;;;;;;;;;;;;7.65;57.18;100253.72;4549774;26;19935;-66
2024/04/24 07:59:02;;;;;;;;;;;;;;;7.67;56.97;100257.94;4549469;26;20058;-67
2024/04/24 08:01:03;;;;;;;;;;;;;;;7.69;56.86;100255.06;4550627;26;19928;-66
2024/04/24 08:03:10;;;;;;;;;;;;;;;7.71;56.84;100255.75;4545922;26;20359;-66
2024/04/24 08:05:13;;;;;;;;;;;;;;;7.74;56.65;100244.66;4546801;26;19927;-66
2024/04/24 08:07:14;;;;;;;;;;;;;;;7.76;56.54;100245.34;4549288;26;20711;-67
2024/04/24 08:09:18;;;;;;;;;;;;;;;7.76;56.83;100243.47;4550204;25;19927;-66
2024/04/24 08:11:22;;;;;;;;;;;;;;;7.78;56.51;100237.09;4551089;26;19965;-66
2024/04/24 08:13:25;;;;;;;;;;;;;;;7.80;56.70;100240.44;4545215;26;19928;-67
2024/04/24 08:15:26;;;;;;;;;;;;;;;7.81;56.43;100242.13;4550322;26;19927;-66
2024/04/24 08:17:30;;;;;;;;;;;;;;;7.83;56.45;100246.31;4550041;26;19927;-67
2024/04/24 08:19:36;;;;;;;;;;;;;;;7.84;56.27;100245.31;4546128;26;19939;-67
2024/04/24 08:21:40;;;;;;;;;;;;;;;7.87;55.92;100242.28;4550480;26;20016;-66
2024/04/24 08:23:43;;;;;;;;;;;;;;;7.88;55.25;100245.81;4548524;26;19928;-67
2024/04/24 08:25:44;;;;;;;;;;;;;;;7.90;55.37;100235.72;4548915;26;19936;-67
2024/04/24 08:27:48;;;;;;;;;;;;;;;7.92;55.48;100237.22;4549478;26;19951;-66
2024/04/24 08:29:52;;;;;;;;;;;;;;;7.94;55.35;100237.06;4549931;26;19928;-66
2024/04/24 08:31:53;;;;;;;;;;;;;;;7.94;55.35;100243.25;4552344;26;19928;-66
2024/04/24 08:33:57;;;;;;;;;;;;;;;7.97;54.77;100243.94;4553031;26;19928;-65
2024/04/24 08:36:02;;;;;;;;;;;;;;;7.97;55.00;100227.81;4552169;26;19927;-67
2024/04/24 08:38:06;;;;;;;;;;;;;;;7.98;55.17;100237.53;4552880;26;19994;-67
2024/04/24 08:40:07;;;;;;;;;;;;;;;7.99;54.87;100231.16;4553011;26;20008;-67
2024/04/24 08:42:11;;;;;;;;;;;;;;;8.01;55.02;100229.13;4551546;26;19934;-66
2024/04/24 08:44:15;;;;;;;;;;;;;;;8.02;54.69;100231.63;4550996;26;19935;-66
2024/04/24 08:46:18;;;;;;;;;;;;;;;8.03;54.64;100229.81;4552171;26;21017;-67
2024/04/24 08:48:19;;;;;;;;;;;;;;;8.05;54.62;100230.47;4552478;26;19927;-66
2024/04/24 08:50:23;;;;;;;;;;;;;;;8.06;54.49;100227.59;4550844;26;19935;-67
2024/04/24 08:52:29;;;;;;;;;;;;;;;8.07;54.51;100229.28;4551462;26;19928;-65
2024/04/24 08:54:30;;;;;;;;;;;;;;;8.07;54.88;100231.13;4552137;26;19940;-66
2024/04/24 08:56:36;;;;;;;;;;;;;;;8.09;54.37;100234.50;4552299;26;20267;-67
2024/04/24 08:58:37;;;;;;;;;;;;;;;8.09;54.43;100229.94;4552398;26;20643;-66
2024/04/24 09:00:41;;;;;;;;;;;;;;;8.10;54.62;100228.94;4550575;26;20456;-67
2024/04/24 09:02:47;;;;;;;;;;;;;;;8.12;54.50;100226.09;4550182;26;19928;-67
2024/04/24 09:04:50;;;;;;;;;;;;;;;8.14;54.34;100228.59;4550895;26;19939;-66
2024/04/24 09:06:51;;;;;;;;;;;;;;;8.15;54.07;100230.25;4550391;25;19927;-67
2024/04/24 09:08:58;;;;;;;;;;;;;;;8.16;53.94;100222.00;4549876;26;19928;-66
2024/04/24 09:11:04;;;;;;;;;;;;;;;8.17;53.42;100212.13;4547783;26;19928;-66
2024/04/24 09:13:08;;;;;;;;;;;;;;;8.18;53.79;100216.47;4547870;25;20021;-67
2024/04/24 09:15:09;;;;;;;;;;;;;;;8.18;53.29;100213.78;4547603;26;20376;-66
2024/04/24 09:17:13;;;;;;;;;;;;;;;8.20;53.46;100219.84;4555571;26;19928;-66
2024/04/24 09:19:14;;;;;;;;;;;;;;;8.20;53.06;100215.28;4548373;26;21810;-67
2024/04/24 09:21:18;;;;;;;;;;;;;;;8.21;53.41;100211.59;4550210;26;19940;-67
2024/04/24 09:23:23;;;;;;;;;;;;;;;8.21;53.31;100208.91;4550892;26;20368;-67
2024/04/24 09:25:29;;;;;;;;;;;;;;;8.22;53.76;100213.25;4551268;26;19927;-67
2024/04/24 09:27:35;;;;;;;;;;;;;;;8.23;53.40;100217.63;4550478;26;19935;-68
2024/04/24 09:29:38;;;;;;;;;;;;;;;8.24;53.29;100213.06;4551319;26;20021;-67
2024/04/24 09:31:40;;;;;;;;;;;;;;;8.24;53.07;100215.75;4551203;26;19927;-68
2024/04/24 09:33:43;;;;;;;;;;;;;;;8.25;53.36;100207.53;4551166;26;19928;-67
2024/04/24 09:35:47;;;;;;;;;;;;;;;8.26;53.36;100211.91;4551503;26;19936;-67
2024/04/24 09:37:48;;;;;;;;;;;;;;;8.27;53.08;100215.41;4551742;26;19939;-67
2024/04/24 09:39:52;;;;;;;;;;;;;;;8.27;53.00;100213.56;4549599;26;19935;-67
2024/04/24 09:41:55;;;;;;;;;;;;;;;8.27;52.87;100204.66;4551059;26;19927;-66
2024/04/24 09:43:59;;;;;;;;;;;;;;;8.28;53.14;100209.03;4522020;26;19936;-65
2024/04/24 09:46:03;;;;;;;;;;;;;;;8.28;53.07;100209.88;4523587;26;19928;-67
2024/04/24 09:48:07;;;;;;;;;;;;;;;8.29;53.07;100206.16;4549720;26;20373;-67
2024/04/24 09:50:13;;;;;;;;;;;;;;;8.30;53.29;100204.31;4551534;26;20269;-67
2024/04/24 09:52:17;;;;;;;;;;;;;;;8.30;53.18;100198.94;4551462;26;19978;-67
2024/04/24 09:54:21;;;;;;;;;;;;;;;8.30;53.31;100198.94;4549567;26;20261;-67
2024/04/24 09:56:22;;;;;;;;;;;;;;;8.32;53.41;100201.44;4550116;26;20269;-67
2024/04/24 09:58:29;;;;;;;;;;;;;;;8.33;53.49;100203.97;4545044;26;19935;-67
2024/04/24 10:00:34;;;;;;;;;;;;;;;8.34;53.37;100194.03;4549210;26;20700;-67
2024/04/24 10:02:38;;;;;;;;;;;;;;;8.34;53.27;100199.41;4549763;26;19950;-67
2024/04/24 10:04:40;;;;;;;;;;;;;;;8.34;53.55;100197.56;4548653;26;19928;-66
2024/04/24 10:06:45;;;;;;;;;;;;;;;8.34;53.84;100192.19;4550957;25;19931;-66
2024/04/24 10:08:46;;;;;;;;;;;;;;;8.36;53.88;100197.41;4549425;26;20080;-67
2024/04/24 10:10:51;;;;;;;;;;;;;;;8.36;54.00;100195.53;4550121;26;19928;-67
2024/04/24 10:12:52;;;;;;;;;;;;;;;8.36;54.03;100194.72;4548699;26;19947;-67
2024/04/24 10:15:01;;;;;;;;;;;;;;;8.37;53.66;100196.34;4549071;26;20017;-67
2024/04/24 10:17:02;;;;;;;;;;;;;;;8.36;53.77;100192.84;4548793;26;19932;-67
2024/04/24 10:19:06;;;;;;;;;;;;;;;8.39;53.95;100203.25;4547408;26;20334;-67
2024/04/24 10:21:08;;;;;;;;;;;;;;;8.39;53.42;100208.63;4523405;26;19928;-67
2024/04/24 10:23:12;;;;;;;;;;;;;;;8.40;53.70;100201.38;4548141;26;19943;-66
2024/04/24 10:25:13;;;;;;;;;;;;;;;8.40;53.83;100196.88;4542507;26;19939;-66
2024/04/24 10:27:16;;;;;;;;;;;;;;;8.41;53.38;100192.31;4539294;26;20039;-66
2024/04/24 10:29:20;;;;;;;;;;;;;;;8.41;53.73;100197.69;4544223;26;19935;-66
2024/04/24 10:31:24;;;;;;;;;;;;;;;8.40;54.11;100191.50;4545109;26;20497;-68
2024/04/24 10:33:28;;;;;;;;;;;;;;;8.41;53.76;100197.69;4547933;26;19931;-67
2024/04/24 10:35:32;;;;;;;;;;;;;;;8.40;53.87;100188.78;4547359;26;20388;-67
2024/04/24 10:37:35;;;;;;;;;;;;;;;8.41;54.04;100195.84;4546949;26;19931;-67
2024/04/24 10:39:47;;;;;;;;;;;;;;;8.42;53.81;100194.00;4545588;26;19954;-67
2024/04/24 10:41:48;;;;;;;;;;;;;;;8.42;54.26;100186.75;4549657;26;19941;-67
2024/04/24 10:43:51;;;;;;;;;;;;;;;8.42;54.07;100185.94;4548367;26;19939;-67
2024/04/24 10:45:53;;;;;;;;;;;;;;;8.43;54.16;100188.47;4549331;26;19927;-68
2024/04/24 10:47:59;;;;;;;;;;;;;;;8.43;54.03;100185.78;4549973;26;19931;-67
2024/04/24 10:50:00;;;;;;;;;;;;;;;8.43;54.01;100188.47;4524520;26;19944;-67